createdAt,value
2022-12-06T00:00:02.592Z,100887.41
2022-12-06T00:02:07.278Z,100883.15
2022-12-06T00:03:07.480Z,100885.14
2022-12-06T00:04:10.612Z,100881.12
2022-12-06T00:05:08.819Z,100884.41
2022-12-06T00:06:11.645Z,100883.89
2022-12-06T00:07:09.090Z,100879.67
2022-12-06T00:08:09.563Z,100879.63
2022-12-06T00:10:14.090Z,100878.53
2022-12-06T00:12:15.540Z,100871.69
2022-12-06T00:13:15.860Z,100871.66
2022-12-06T00:14:16.680Z,100870.23
2022-12-06T00:15:16.929Z,100864.83
2022-12-06T00:16:17.639Z,100868.37
2022-12-06T00:17:17.462Z,100863.27
2022-12-06T00:18:17.968Z,100862.95
2022-12-06T00:19:21.967Z,100859.49
2022-12-06T00:20:19.820Z,100862.19
2022-12-06T00:21:25.673Z,100856.78
2022-12-06T00:22:23.120Z,100862.02
2022-12-06T00:23:26.476Z,100858.24
2022-12-06T00:24:26.401Z,100852.17
2022-12-06T00:25:26.717Z,100850.25
2022-12-06T00:26:27.336Z,100848.59
2022-12-06T00:27:27.343Z,100848.04
2022-12-06T00:28:27.770Z,100844.8
2022-12-06T00:29:28.175Z,100842.57
2022-12-06T00:30:28.493Z,100841.34
2022-12-06T00:31:31.030Z,100840.15
2022-12-06T00:32:29.680Z,100837.88
2022-12-06T00:33:30.252Z,100840.77
2022-12-06T00:34:30.276Z,100830.83
2022-12-06T00:35:30.580Z,100832.74
2022-12-06T00:36:36.732Z,100831.51
2022-12-06T00:37:34.405Z,100827.55
2022-12-06T00:38:34.892Z,100827.48
2022-12-06T00:39:34.761Z,100827.91
2022-12-06T00:40:35.122Z,100828.84
2022-12-06T00:41:35.644Z,100826.19
2022-12-06T00:42:36.041Z,100831.17
2022-12-06T00:43:37.189Z,100823.74
2022-12-06T00:44:36.789Z,100824.21
2022-12-06T00:45:37.239Z,100819.44
2022-12-06T00:46:38.541Z,100818.44
2022-12-06T00:47:37.917Z,100821.69
2022-12-06T00:48:38.244Z,100822
2022-12-06T00:49:38.553Z,100813.84
2022-12-06T00:50:39.089Z,100820.2
2022-12-06T00:51:40.619Z,100813.59
2022-12-06T00:52:39.698Z,100821.62
2022-12-06T00:53:40.120Z,100818.51
2022-12-06T00:54:40.541Z,100815.64
2022-12-06T00:55:40.789Z,100817.75
2022-12-06T00:56:41.469Z,100810.64
2022-12-06T00:57:41.580Z,100817.23
2022-12-06T00:58:42.352Z,100816.08
2022-12-06T00:59:42.509Z,100814.14
2022-12-06T01:00:43.228Z,100816.97
2022-12-06T01:01:43.257Z,100816.94
2022-12-06T01:02:43.482Z,100816.92
2022-12-06T01:03:45.414Z,100815.31
2022-12-06T01:04:44.340Z,100814.02
2022-12-06T01:05:47.668Z,100813.58
2022-12-06T01:06:45.419Z,100808.3
2022-12-06T01:07:45.625Z,100810.33
2022-12-06T01:08:45.848Z,100809.38
2022-12-06T01:09:46.570Z,100810.92
2022-12-06T01:10:53.852Z,100806.83
2022-12-06T01:11:51.300Z,100805.36
2022-12-06T01:12:51.812Z,100801.02
2022-12-06T01:13:52.941Z,100798.8
2022-12-06T01:14:52.439Z,100802.3
2022-12-06T01:15:52.751Z,100802.92
2022-12-06T01:16:53.225Z,100792.31
2022-12-06T01:17:53.492Z,100797.01
2022-12-06T01:18:59.389Z,100791.91
2022-12-06T01:19:57.070Z,100793.01
2022-12-06T01:20:57.286Z,100785.53
2022-12-06T01:21:57.493Z,100785.59
2022-12-06T01:22:57.817Z,100782.75
2022-12-06T01:23:58.961Z,100784.2
2022-12-06T01:24:58.820Z,100779.8
2022-12-06T01:25:58.965Z,100775.42
2022-12-06T01:26:59.490Z,100777.84
2022-12-06T01:27:59.903Z,100781.17
2022-12-06T01:29:00.932Z,100776
2022-12-06T01:30:00.972Z,100777.53
2022-12-06T01:31:06.220Z,100777.29
2022-12-06T01:32:03.811Z,100774.47
2022-12-06T01:33:04.360Z,100773.4
2022-12-06T01:34:04.455Z,100769.87
2022-12-06T01:35:05.583Z,100767.32
2022-12-06T01:36:05.482Z,100766.14
2022-12-06T01:37:05.612Z,100764.94
2022-12-06T01:38:06.492Z,100765.32
2022-12-06T01:39:06.201Z,100768.41
2022-12-06T01:40:08.175Z,100765.73
2022-12-06T01:41:07.003Z,100767.66
2022-12-06T01:42:09.712Z,100765.79
2022-12-06T01:45:11.788Z,100759.3
2022-12-06T01:48:15.181Z,100754.79
2022-12-06T01:51:19.303Z,100744.16
2022-12-06T01:52:22.677Z,100748.48
2022-12-06T01:53:25.279Z,100750.3
2022-12-06T01:54:25.767Z,100745.78
2022-12-06T01:55:26.796Z,100742.12
2022-12-06T01:56:24.138Z,100739.49
2022-12-06T01:57:24.876Z,100734.17
2022-12-06T01:58:32.144Z,100731.3
2022-12-06T01:59:29.938Z,100726.2
2022-12-06T02:00:29.699Z,100723.45
2022-12-06T02:01:30.748Z,100720.38
2022-12-06T02:02:30.830Z,100719.3
2022-12-06T02:03:33.612Z,100717.39
2022-12-06T02:04:32.055Z,100714.69
2022-12-06T02:05:36.133Z,100717.34
2022-12-06T02:06:37.224Z,100713.48
2022-12-06T02:07:37.761Z,100717.58
2022-12-06T02:08:38.832Z,100715.83
2022-12-06T02:09:38.765Z,100714.36
2022-12-06T02:10:38.849Z,100717.42
2022-12-06T02:11:40.532Z,100711.48
2022-12-06T02:12:38.894Z,100715.56
2022-12-06T02:13:39.900Z,100709.8
2022-12-06T02:14:40.550Z,100713.95
2022-12-06T02:18:00.953Z,100707.62
2022-12-06T02:22:14.994Z,100702.95
2022-12-06T02:32:42.473Z,100700.27
2022-12-06T02:35:43.144Z,100694.56
2022-12-06T02:47:02.361Z,100694.38
2022-12-06T02:48:03.394Z,100697.75
2022-12-06T02:49:04.254Z,100697.63
2022-12-06T02:50:05.762Z,100695.55
2022-12-06T02:52:05.752Z,100694.69
2022-12-06T02:54:10.714Z,100685.69
2022-12-06T02:55:10.498Z,100681.82
2022-12-06T02:56:09.180Z,100675.09
2022-12-06T02:57:09.293Z,100677.03
2022-12-06T02:58:10.788Z,100677.56
2022-12-06T02:59:10.629Z,100677.02
2022-12-06T03:01:20.767Z,100670.24
2022-12-06T03:02:18.569Z,100664.52
2022-12-06T03:16:04.990Z,100646.8
2022-12-06T03:21:18.979Z,100648.81
2022-12-06T03:22:24.805Z,100652.14
2022-12-06T03:23:23.080Z,100653.99
2022-12-06T03:24:22.572Z,100649.03
2022-12-06T03:25:21.461Z,100648.64
2022-12-06T03:26:26.483Z,100653.7
2022-12-06T03:27:25.758Z,100650.19
2022-12-06T03:28:24.686Z,100650.22
2022-12-06T03:29:28.231Z,100649.48
2022-12-06T03:30:25.685Z,100644.09
2022-12-06T03:31:28.931Z,100643.08
2022-12-06T03:32:30.924Z,100643.91
2022-12-06T03:33:30.222Z,100642.25
2022-12-06T03:34:35.741Z,100635.12
2022-12-06T03:35:35.863Z,100638.74
2022-12-06T03:36:34.230Z,100630.3
2022-12-06T03:37:38.023Z,100629.28
2022-12-06T03:38:40.887Z,100619.39
2022-12-06T03:40:42.095Z,100618.86
2022-12-06T03:42:44.700Z,100617.56
2022-12-06T03:43:45.122Z,100620.38
2022-12-06T03:44:45.949Z,100621.59
2022-12-06T03:46:56.337Z,100621.94
2022-12-06T03:52:03.394Z,100625
2022-12-06T03:53:02.904Z,100625.06
2022-12-06T03:54:05.572Z,100620.66
2022-12-06T03:55:04.103Z,100618.44
2022-12-06T03:56:04.562Z,100617.3
2022-12-06T03:57:04.356Z,100620.5
2022-12-06T03:58:04.537Z,100619.12
2022-12-06T03:59:06.268Z,100617.42
2022-12-06T04:00:06.629Z,100614.06
2022-12-06T04:01:05.901Z,100612.68
2022-12-06T04:02:06.447Z,100617.16
2022-12-06T04:03:06.551Z,100616.05
2022-12-06T04:04:07.060Z,100614.41
2022-12-06T04:05:07.844Z,100616.91
2022-12-06T04:06:09.021Z,100610.52
2022-12-06T04:07:09.750Z,100612.58
2022-12-06T04:08:08.464Z,100611.92
2022-12-06T04:09:08.736Z,100610.55
2022-12-06T04:10:09.770Z,100609.28
2022-12-06T04:11:09.531Z,100612.78
2022-12-06T04:12:09.778Z,100609.66
2022-12-06T04:13:13.137Z,100606.73
2022-12-06T04:14:14.210Z,100612.39
2022-12-06T04:15:15.346Z,100605.66
2022-12-06T04:16:15.104Z,100601.62
2022-12-06T04:17:15.241Z,100600.86
2022-12-06T04:18:16.557Z,100603.72
2022-12-06T04:19:15.990Z,100602.72
2022-12-06T04:20:16.590Z,100602.66
2022-12-06T04:21:16.619Z,100601.37
2022-12-06T04:22:17.132Z,100602.02
2022-12-06T04:23:18.664Z,100602.38
2022-12-06T04:24:18.584Z,100599.5
2022-12-06T04:25:18.385Z,100601.59
2022-12-06T04:26:21.968Z,100596.15
2022-12-06T04:27:19.406Z,100593.73
2022-12-06T04:28:19.669Z,100595.73
2022-12-06T04:29:20.556Z,100592.6
2022-12-06T04:30:20.462Z,100590.69
2022-12-06T04:31:22.523Z,100585.06
2022-12-06T04:32:21.042Z,100588.41
2022-12-06T04:33:21.485Z,100583.66
2022-12-06T04:34:22.210Z,100585.47
2022-12-06T04:35:22.290Z,100581.05
2022-12-06T04:36:22.734Z,100586.13
2022-12-06T04:37:23.155Z,100583.02
2022-12-06T04:38:23.367Z,100583.23
2022-12-06T04:39:24.289Z,100582.69
2022-12-06T04:40:24.398Z,100580.71
2022-12-06T04:41:24.683Z,100577.92
2022-12-06T04:42:24.933Z,100577.56
2022-12-06T04:43:25.400Z,100572.95
2022-12-06T04:44:25.673Z,100574.96
2022-12-06T04:45:26.072Z,100571.23
2022-12-06T04:46:26.751Z,100570.55
2022-12-06T04:47:26.904Z,100567.12
2022-12-06T04:48:27.428Z,100568.31
2022-12-06T04:49:27.939Z,100568.05
2022-12-06T04:50:28.068Z,100564.87
2022-12-06T04:51:28.896Z,100561.81
2022-12-06T04:52:34.051Z,100558.52
2022-12-06T04:53:33.345Z,100557.47
2022-12-06T04:54:33.609Z,100553.28
2022-12-06T04:55:33.568Z,100550.97
2022-12-06T04:56:34.443Z,100555.65
2022-12-06T04:57:34.558Z,100552.27
2022-12-06T04:58:35.176Z,100552.16
2022-12-06T04:59:35.281Z,100552.66
2022-12-06T05:00:35.649Z,100550.94
2022-12-06T05:01:36.435Z,100554.97
2022-12-06T05:02:36.436Z,100555.23
2022-12-06T05:03:40.952Z,100549.78
2022-12-06T05:04:41.975Z,100548.81
2022-12-06T05:05:42.506Z,100548.06
2022-12-06T05:06:42.287Z,100547.89
2022-12-06T05:07:42.527Z,100540.4
2022-12-06T05:08:43.045Z,100538.28
2022-12-06T05:09:43.538Z,100540.17
2022-12-06T05:11:45.703Z,100542.51
2022-12-06T05:12:46.125Z,100537.97
2022-12-06T05:13:46.434Z,100541.16
2022-12-06T05:14:46.753Z,100537.95
2022-12-06T05:16:48.289Z,100540.44
2022-12-06T05:17:48.604Z,100533.98
2022-12-06T05:18:48.778Z,100537.42
2022-12-06T05:19:49.361Z,100536.02
2022-12-06T05:20:49.548Z,100536.34
2022-12-06T05:21:50.167Z,100534.53
2022-12-06T05:22:50.596Z,100535.17
2022-12-06T05:23:53.353Z,100529.52
2022-12-06T05:24:51.233Z,100528.79
2022-12-06T05:25:51.522Z,100532.19
2022-12-06T05:26:52.071Z,100530.19
2022-12-06T05:28:53.559Z,100530.44
2022-12-06T05:29:53.101Z,100531.86
2022-12-06T05:30:53.374Z,100528.5
2022-12-06T05:31:53.973Z,100525.7
2022-12-06T05:32:57.065Z,100514.95
2022-12-06T05:33:54.617Z,100516.15
2022-12-06T05:34:54.968Z,100510.42
2022-12-06T05:35:55.435Z,100511.11
2022-12-06T05:36:55.792Z,100511.62
2022-12-06T05:37:56.048Z,100505.14
2022-12-06T05:38:57.038Z,100502.7
2022-12-06T05:39:57.064Z,100496.52
2022-12-06T05:40:57.569Z,100492.22
2022-12-06T05:41:57.772Z,100490.31
2022-12-06T05:42:58.044Z,100486.89
2022-12-06T05:43:58.406Z,100484.84
2022-12-06T05:44:58.825Z,100486.13
2022-12-06T05:46:00.183Z,100490.5
2022-12-06T05:46:59.855Z,100487.98
2022-12-06T05:48:00.071Z,100492.46
2022-12-06T05:49:00.484Z,100494.66
2022-12-06T05:50:01.109Z,100486.02
2022-12-06T05:51:01.426Z,100489.34
2022-12-06T05:52:04.158Z,100489.81
2022-12-06T05:53:02.343Z,100489.45
2022-12-06T05:54:02.317Z,100494.43
2022-12-06T05:55:02.773Z,100491.11
2022-12-06T05:56:07.397Z,100486.99
2022-12-06T05:57:04.833Z,100486.09
2022-12-06T05:58:05.397Z,100482.54
2022-12-06T05:59:05.773Z,100481.74
2022-12-06T06:00:07.074Z,100485.33
2022-12-06T06:01:07.440Z,100477.42
2022-12-06T06:02:06.728Z,100473.22
2022-12-06T06:03:07.471Z,100470.82
2022-12-06T06:04:07.680Z,100468.56
2022-12-06T06:05:08.471Z,100458.94
2022-12-06T06:06:08.528Z,100459.68
2022-12-06T06:07:08.434Z,100462.77
2022-12-06T06:08:09.017Z,100467.33
2022-12-06T06:09:09.419Z,100467.7
2022-12-06T06:10:10.395Z,100470.89
2022-12-06T06:11:10.117Z,100474.29
2022-12-06T06:12:12.653Z,100476.38
2022-12-06T06:13:10.988Z,100479.23
2022-12-06T06:14:11.298Z,100474.46
2022-12-06T06:15:13.099Z,100472.34
2022-12-06T06:16:12.025Z,100476.99
2022-12-06T06:17:12.461Z,100469.08
2022-12-06T06:18:12.761Z,100467.31
2022-12-06T06:19:13.788Z,100468.21
2022-12-06T06:20:13.812Z,100462.7
2022-12-06T06:21:14.310Z,100459.2
2022-12-06T06:22:14.324Z,100462.3
2022-12-06T06:23:14.842Z,100464.55
2022-12-06T06:24:15.151Z,100465.62
2022-12-06T06:25:15.631Z,100466.93
2022-12-06T06:26:15.880Z,100469.88
2022-12-06T06:27:16.193Z,100466.4
2022-12-06T06:28:17.434Z,100466.88
2022-12-06T06:29:17.028Z,100464.99
2022-12-06T06:30:17.962Z,100464.39
2022-12-06T06:31:17.947Z,100467.67
2022-12-06T06:32:18.373Z,100460.34
2022-12-06T06:33:18.544Z,100453.03
2022-12-06T06:34:19.309Z,100454.66
2022-12-06T06:35:19.426Z,100454.09
2022-12-06T06:36:19.841Z,100452.95
2022-12-06T06:37:20.457Z,100447.14
2022-12-06T06:38:20.571Z,100441.2
2022-12-06T06:39:20.881Z,100443.81
2022-12-06T06:41:21.818Z,100440.4
2022-12-06T06:42:22.557Z,100438.61
2022-12-06T06:43:22.546Z,100440.05
2022-12-06T06:44:22.964Z,100444.73
2022-12-06T06:45:28.565Z,100440.92
2022-12-06T06:46:26.941Z,100439.83
2022-12-06T06:47:27.191Z,100438.48
2022-12-06T06:48:30.150Z,100435.97
2022-12-06T06:49:27.907Z,100433
2022-12-06T06:50:28.366Z,100429.91
2022-12-06T06:51:30.691Z,100430.48
2022-12-06T06:52:29.256Z,100427.9
2022-12-06T06:53:29.504Z,100423.33
2022-12-06T06:54:29.884Z,100424.14
2022-12-06T06:55:30.409Z,100426.32
2022-12-06T06:56:30.628Z,100421.69
2022-12-06T06:57:31.349Z,100419.6
2022-12-06T06:58:31.666Z,100421.55
2022-12-06T06:59:31.768Z,100418.09
2022-12-06T07:00:35.154Z,100420.83
2022-12-06T07:01:32.805Z,100419.44
2022-12-06T07:02:33.288Z,100417.59
2022-12-06T07:03:34.459Z,100421.01
2022-12-06T07:04:33.856Z,100416.7
2022-12-06T07:05:34.462Z,100419.07
2022-12-06T07:06:34.592Z,100420.88
2022-12-06T07:07:35.091Z,100418.97
2022-12-06T07:08:35.612Z,100422.83
2022-12-06T07:09:36.037Z,100420.42
2022-12-06T07:10:36.149Z,100421.11
2022-12-06T07:11:36.715Z,100420.72
2022-12-06T07:12:37.179Z,100418.95
2022-12-06T07:13:38.928Z,100425.34
2022-12-06T07:14:38.044Z,100423.03
2022-12-06T07:15:38.120Z,100423.86
2022-12-06T07:16:38.563Z,100427.42
2022-12-06T07:17:38.902Z,100431.3
2022-12-06T07:18:39.265Z,100431.91
2022-12-06T07:19:39.788Z,100430.99
2022-12-06T07:20:40.101Z,100431.61
2022-12-06T07:21:40.621Z,100429.63
2022-12-06T07:22:41.026Z,100434.2
2022-12-06T07:23:41.402Z,100430.82
2022-12-06T07:24:44.551Z,100432.16
2022-12-06T07:25:45.578Z,100433.7
2022-12-06T07:26:45.878Z,100431.91
2022-12-06T07:27:46.308Z,100430.12
2022-12-06T07:28:48.854Z,100431.95
2022-12-06T07:29:46.999Z,100429.1
2022-12-06T07:30:47.393Z,100430.22
2022-12-06T07:31:47.752Z,100434.49
2022-12-06T07:32:48.265Z,100430.09
2022-12-06T07:33:51.251Z,100427.44
2022-12-06T07:34:48.891Z,100435.64
2022-12-06T07:36:50.348Z,100430.92
2022-12-06T07:37:50.657Z,100433.77
2022-12-06T07:38:53.527Z,100432.48
2022-12-06T07:39:51.690Z,100428.34
2022-12-06T07:41:07.205Z,100421.57
2022-12-06T07:41:54.780Z,100426.95
2022-12-06T07:42:55.103Z,100429
2022-12-06T07:43:57.824Z,100428.41
2022-12-06T07:45:01.311Z,100429.09
2022-12-06T07:45:59.570Z,100427.04
2022-12-06T07:47:00.143Z,100433.61
2022-12-06T07:48:00.459Z,100427.77
2022-12-06T07:49:00.840Z,100430.86
2022-12-06T07:50:01.734Z,100434.62
2022-12-06T07:51:07.639Z,100429.41
2022-12-06T07:52:05.389Z,100425.94
2022-12-06T07:53:05.394Z,100434.2
2022-12-06T07:54:06.390Z,100429.17
2022-12-06T07:55:07.761Z,100430.28
2022-12-06T07:56:08.053Z,100429.32
2022-12-06T07:57:06.954Z,100427.34
2022-12-06T07:58:07.455Z,100424.12
2022-12-06T07:59:07.996Z,100419.56
2022-12-06T08:00:10.978Z,100423.41
2022-12-06T08:01:08.610Z,100422.11
2022-12-06T08:02:22.563Z,100419.64
2022-12-06T08:03:10.071Z,100420.58
2022-12-06T08:04:10.626Z,100413.48
2022-12-06T08:05:11.722Z,100419.23
2022-12-06T08:06:11.113Z,100419.43
2022-12-06T08:07:11.644Z,100419.56
2022-12-06T08:08:11.893Z,100415.56
2022-12-06T08:09:12.361Z,100413.02
2022-12-06T08:10:12.998Z,100414.65
2022-12-06T08:11:13.302Z,100411.89
2022-12-06T08:12:13.926Z,100413.95
2022-12-06T08:13:13.980Z,100410.95
2022-12-06T08:14:14.349Z,100410.02
2022-12-06T08:15:15.145Z,100407.89
2022-12-06T08:16:15.224Z,100407.94
2022-12-06T08:17:16.205Z,100405.83
2022-12-06T08:18:16.015Z,100407.7
2022-12-06T08:19:16.231Z,100404.35
2022-12-06T08:20:16.938Z,100402.21
2022-12-06T08:21:17.353Z,100406.08
2022-12-06T08:22:17.462Z,100405.17
2022-12-06T08:23:17.907Z,100410.47
2022-12-06T08:24:18.601Z,100410.15
2022-12-06T08:25:18.717Z,100409.89
2022-12-06T08:26:19.147Z,100407.68
2022-12-06T08:27:19.446Z,100408.64
2022-12-06T08:28:19.769Z,100407.11
2022-12-06T08:29:20.475Z,100409.05
2022-12-06T08:30:20.807Z,100412.28
2022-12-06T08:31:23.916Z,100408.12
2022-12-06T08:32:21.491Z,100412.14
2022-12-06T08:33:21.948Z,100414.2
2022-12-06T08:34:22.255Z,100407.66
2022-12-06T08:35:22.772Z,100410.33
2022-12-06T08:36:24.321Z,100406.36
2022-12-06T08:37:23.464Z,100405.96
2022-12-06T08:38:23.824Z,100409.97
2022-12-06T08:39:24.342Z,100403.01
2022-12-06T08:40:24.653Z,100407.2
2022-12-06T08:41:25.178Z,100404.5
2022-12-06T08:42:25.799Z,100407.09
2022-12-06T08:43:25.757Z,100410.24
2022-12-06T08:44:27.961Z,100406.72
2022-12-06T08:45:26.954Z,100406.35
2022-12-06T08:46:28.513Z,100408.22
2022-12-06T08:47:27.469Z,100404.33
2022-12-06T08:48:27.776Z,100403.8
2022-12-06T08:49:30.036Z,100405.03
2022-12-06T08:50:28.876Z,100404.53
2022-12-06T08:51:29.744Z,100409.88
2022-12-06T08:52:29.545Z,100404.44
2022-12-06T08:53:30.525Z,100405.73
2022-12-06T08:54:31.092Z,100404.92
2022-12-06T08:55:31.306Z,100402.33
2022-12-06T08:56:32.038Z,100402.78
2022-12-06T08:57:33.366Z,100401.8
2022-12-06T08:58:32.709Z,100402.21
2022-12-06T08:59:33.283Z,100400.09
2022-12-06T09:00:33.276Z,100399.98
2022-12-06T09:01:37.997Z,100398.2
2022-12-06T09:02:38.415Z,100394.2
2022-12-06T09:03:36.690Z,100392.51
2022-12-06T09:04:37.328Z,100392.28
2022-12-06T09:05:37.304Z,100395.28
2022-12-06T09:06:39.776Z,100388.96
2022-12-06T09:07:38.184Z,100386.14
2022-12-06T09:08:38.894Z,100385.84
2022-12-06T09:09:39.329Z,100389.62
2022-12-06T09:10:39.352Z,100385.69
2022-12-06T09:11:40.732Z,100389.3
2022-12-06T09:12:40.020Z,100388.84
2022-12-06T09:13:41.220Z,100384.14
2022-12-06T09:14:41.059Z,100383.8
2022-12-06T09:15:41.621Z,100383.06
2022-12-06T09:16:43.127Z,100381.22
2022-12-06T09:17:41.970Z,100379.41
2022-12-06T09:18:44.457Z,100377.09
2022-12-06T09:19:43.135Z,100376.5
2022-12-06T09:20:43.257Z,100378.7
2022-12-06T09:21:44.073Z,100374.1
2022-12-06T09:22:45.006Z,100373.14
2022-12-06T09:23:44.908Z,100372.23
2022-12-06T09:24:45.216Z,100370.02
2022-12-06T09:25:45.326Z,100369.66
2022-12-06T09:26:45.757Z,100368
2022-12-06T09:27:45.949Z,100368.72
2022-12-06T09:28:48.006Z,100365.43
2022-12-06T09:29:47.369Z,100366.08
2022-12-06T09:30:47.357Z,100363.2
2022-12-06T09:31:47.939Z,100355.52
2022-12-06T09:32:48.147Z,100358.58
2022-12-06T09:33:48.660Z,100358.43
2022-12-06T09:34:48.774Z,100357.45
2022-12-06T09:35:51.436Z,100351.69
2022-12-06T09:37:50.778Z,100349.66
2022-12-06T09:39:54.179Z,100345.67
2022-12-06T09:56:41.134Z,100344.95
2022-12-06T10:06:03.014Z,100345.16
2022-12-06T10:26:52.622Z,100321.06
2022-12-06T10:29:59.414Z,100311.48
2022-12-06T10:31:08.984Z,100303.24
2022-12-06T10:34:22.531Z,100298.84
2022-12-06T10:45:49.362Z,100294.14
2022-12-06T10:46:53.165Z,100290.89
2022-12-06T10:47:45.973Z,100288.58
2022-12-06T10:53:13.236Z,100287.69
2022-12-06T10:54:10.891Z,100280.2
2022-12-06T11:07:37.886Z,100270.33
2022-12-06T11:08:38.221Z,100272.84
2022-12-06T11:10:34.853Z,100271.59
2022-12-06T11:11:36.897Z,100269.32
2022-12-06T11:12:38.802Z,100274.47
2022-12-06T11:13:45.211Z,100271.91
2022-12-06T11:14:45.115Z,100272.81
2022-12-06T11:15:50.197Z,100271.67
2022-12-06T11:17:47.493Z,100267
2022-12-06T11:18:46.175Z,100271.74
2022-12-06T11:21:56.749Z,100255.06
2022-12-06T11:32:16.977Z,100244.41
2022-12-06T11:33:15.649Z,100250.19
2022-12-06T11:36:24.680Z,100245.47
2022-12-06T11:37:27.049Z,100243.4
2022-12-06T11:38:24.590Z,100245.59
2022-12-06T11:39:26.040Z,100240.83
2022-12-06T11:41:33.623Z,100238.59
2022-12-06T11:42:31.376Z,100233.03
2022-12-06T11:43:33.532Z,100235.09
2022-12-06T11:45:34.472Z,100232.4
2022-12-06T11:46:33.215Z,100231.27
2022-12-06T11:47:33.263Z,100230.78
2022-12-06T11:48:35.718Z,100228.31
2022-12-06T11:50:38.520Z,100223.42
2022-12-06T11:51:38.911Z,100226.7
2022-12-06T11:55:49.382Z,100219.05
2022-12-06T11:56:46.932Z,100217.17
2022-12-06T11:57:55.951Z,100217.05
2022-12-06T12:01:58.064Z,100206.74
2022-12-06T12:02:57.471Z,100207.69
2022-12-06T12:03:56.497Z,100206.49
2022-12-06T12:09:06.361Z,100201.88
2022-12-06T12:11:21.335Z,100204.19
2022-12-06T12:12:17.856Z,100203.11
2022-12-06T12:13:21.444Z,100201.31
2022-12-06T12:14:26.572Z,100200.5
2022-12-06T12:15:24.228Z,100203.14
2022-12-06T12:20:44.644Z,100203.1
2022-12-06T12:21:42.384Z,100203.06
2022-12-06T12:22:42.610Z,100203.73
2022-12-06T12:23:45.881Z,100204.98
2022-12-06T12:25:17.879Z,100203.12
2022-12-06T12:26:48.868Z,100207.73
2022-12-06T12:27:52.771Z,100204.38
2022-12-06T12:30:54.533Z,100203.8
2022-12-06T12:44:42.479Z,100189.89
2022-12-06T12:45:25.338Z,100186.51
2022-12-06T12:46:26.223Z,100179.12
2022-12-06T12:47:26.487Z,100187.23
2022-12-06T12:48:27.923Z,100188.89
2022-12-06T12:49:30.288Z,100188.02
2022-12-06T12:50:30.102Z,100188.56
2022-12-06T12:54:36.688Z,100193.53
2022-12-06T12:55:34.316Z,100188.93
2022-12-06T12:56:37.605Z,100193.61
2022-12-06T12:57:35.259Z,100195.03
2022-12-06T12:58:36.361Z,100198.76
2022-12-06T12:59:41.309Z,100194.16
2022-12-06T13:00:43.463Z,100194.91
2022-12-06T13:02:51.237Z,100193.3
2022-12-06T13:03:52.955Z,100190.94
2022-12-06T13:05:11.027Z,100192
2022-12-06T13:05:53.118Z,100188.59
2022-12-06T13:09:00.717Z,100182.45
2022-12-06T13:11:05.685Z,100179.7
2022-12-06T13:12:07.288Z,100179.27
2022-12-06T13:16:21.455Z,100168.36
2022-12-06T13:17:14.978Z,100163.08
2022-12-06T13:18:23.308Z,100162.2
2022-12-06T13:19:17.683Z,100161.3
2022-12-06T13:20:25.474Z,100162.77
2022-12-06T13:21:27.639Z,100159.88
2022-12-06T13:23:27.682Z,100153.03
2022-12-06T13:24:28.731Z,100156.51
2022-12-06T13:25:26.417Z,100154.18
2022-12-06T13:26:33.899Z,100152.27
2022-12-06T13:27:42.847Z,100151.41
2022-12-06T13:28:45.497Z,100150.02
2022-12-06T13:29:48.674Z,100152.98
2022-12-06T13:30:42.359Z,100151.55
2022-12-06T13:31:42.233Z,100159.05
2022-12-06T13:32:47.261Z,100157.25
2022-12-06T13:34:54.154Z,100154.89
2022-12-06T13:36:46.884Z,100154.38
2022-12-06T13:38:50.269Z,100153.52
2022-12-06T13:39:50.683Z,100153.41
2022-12-06T13:40:56.033Z,100153.11
2022-12-06T13:41:56.838Z,100155.38
2022-12-06T13:42:54.283Z,100151.74
2022-12-06T13:43:54.709Z,100155.98
2022-12-06T13:45:00.440Z,100156.09
2022-12-06T13:48:04.154Z,100153.36
2022-12-06T13:53:15.709Z,100155.49
2022-12-06T13:57:23.162Z,100159.42
2022-12-06T14:03:40.600Z,100164.44
2022-12-06T14:04:38.867Z,100162.11
2022-12-06T14:06:45.534Z,100159.6
2022-12-06T14:07:43.528Z,100158.66
2022-12-06T14:08:57.949Z,100158.75
2022-12-06T14:09:48.041Z,100154
2022-12-06T14:10:46.172Z,100148.45
2022-12-06T14:11:48.345Z,100147.72
2022-12-06T14:12:59.503Z,100146.85
2022-12-06T14:13:49.986Z,100149.98
2022-12-06T14:15:52.253Z,100155.7
2022-12-06T14:17:00.801Z,100143.75
2022-12-06T14:18:03.156Z,100148.83
2022-12-06T14:18:58.839Z,100144.77
2022-12-06T14:19:59.032Z,100142.45
2022-12-06T14:21:01.094Z,100142.47
2022-12-06T14:23:01.458Z,100141.92
2022-12-06T14:24:02.034Z,100140.81
2022-12-06T14:25:06.265Z,100142.64
2022-12-06T14:28:13.218Z,100136.05
2022-12-06T14:29:22.246Z,100139.84
2022-12-06T14:30:25.246Z,100138.29
2022-12-06T14:33:27.602Z,100129.09
2022-12-06T14:37:36.426Z,100125.5
2022-12-06T14:38:36.874Z,100120.3
2022-12-06T14:39:37.147Z,100123.83
2022-12-06T14:41:39.628Z,100121.56
2022-12-06T14:42:39.826Z,100119.55
2022-12-06T14:43:41.784Z,100122.74
2022-12-06T14:44:46.608Z,100126.28
2022-12-06T14:45:45.530Z,100123.59
2022-12-06T14:46:48.656Z,100121.73
2022-12-06T14:47:46.724Z,100125.48
2022-12-06T14:48:47.758Z,100114.76
2022-12-06T14:49:54.928Z,100116.66
2022-12-06T14:50:53.054Z,100115.67
2022-12-06T14:51:50.952Z,100117.41
2022-12-06T14:53:54.128Z,100117.92
2022-12-06T14:57:00.500Z,100116.19
2022-12-06T14:59:09.275Z,100112.55
2022-12-06T15:00:17.127Z,100112.11
2022-12-06T15:06:23.702Z,100112.53
2022-12-06T15:08:33.764Z,100107.65
2022-12-06T15:09:29.978Z,100111.3
2022-12-06T15:10:28.353Z,100101.49
2022-12-06T15:11:36.851Z,100101.77
2022-12-06T15:12:37.583Z,100102.04
2022-12-06T15:13:30.618Z,100104.17
2022-12-06T15:16:36.193Z,100108.2
2022-12-06T15:17:36.276Z,100107.84
2022-12-06T15:20:43.045Z,100106.79
2022-12-06T15:21:43.127Z,100103.95
2022-12-06T15:22:43.553Z,100103.69
2022-12-06T15:24:49.528Z,100093.23
2022-12-06T15:25:48.110Z,100096.34
2022-12-06T15:26:48.846Z,100091.52
2022-12-06T15:27:48.845Z,100091.16
2022-12-06T15:28:49.969Z,100095.44
2022-12-06T15:29:50.188Z,100097.77
2022-12-06T15:30:50.790Z,100096.69
2022-12-06T15:31:53.062Z,100093.52
2022-12-06T15:32:50.803Z,100098.66
2022-12-06T15:33:51.534Z,100097.98
2022-12-06T15:34:51.959Z,100091.47
2022-12-06T15:35:52.585Z,100093.49
2022-12-06T15:37:08.973Z,100093.45
2022-12-06T15:37:55.243Z,100094.22
2022-12-06T15:38:55.561Z,100092.03
2022-12-06T15:39:56.190Z,100093.04
2022-12-06T15:40:56.637Z,100095.62
2022-12-06T15:41:57.524Z,100096.26
2022-12-06T15:43:02.142Z,100091.51
2022-12-06T15:44:00.331Z,100091.28
2022-12-06T15:45:01.157Z,100091.06
2022-12-06T15:46:03.929Z,100088.48
2022-12-06T15:47:01.673Z,100089.77
2022-12-06T15:48:01.875Z,100093.61